Statewide Weather Sensors

Route Weather Station Name Milepost Date / Time Surface Status Surface Temp Precip Intensity Wind Avg Wind Gust Dir Dewpoint Humidity Air Temp Visibility
I 25 Wyo Hill 3.52 May 26, 2022 10:34 am     None None 11 mph 20 mph N 23.0°F 18% 68.0°F > 1/2 mi
I 25 Whitaker 28.1 May 26, 2022 10:34 am Dry 94.1°F None None 16 mph 18 mph N 26.6°F 21% 68.0°F > 1/2 mi
I 25 Bear Creek 46.77 May 26, 2022 10:34 am Dry 102.2°F None None 12 mph 18 mph W 30.2°F 23% 68.0°F > 1/2 mi
I 25 Bordeaux 70.8 May 26, 2022 10:34 am Dry 103.3°F None None 11 mph 19 mph NE 32.0°F 23% 69.8°F > 1/2 mi
I 25 Coleman 98.7 May 26, 2022 10:34 am Dry 92.1°F None None 7 mph 11 mph E 37.4°F 30% 69.8°F > 1/2 mi
I 25 Platte/Converse County Line 119.9 May 26, 2022 10:34 am Dry 88.5°F None None 0 mph 5 mph E 44.6°F 37% 71.6°F < 1/4 mi
I 25 Deer Creek 164.2 May 26, 2022 10:34 am Dry 89.8°F None None 14 mph 19 mph W 35.6°F 25% 73.4°F > 1/2 mi
I 25 Hat Six 181.67 May 26, 2022 10:34 am N/A   None None 14 mph 22 mph W 32.0°F 23% 71.6°F > 1/2 mi
I 25 F Street Hill 189.51 May 26, 2022 10:34 am Dry 81.9°F None None 15 mph 20 mph SW 30.2°F 23% 69.8°F > 1/2 mi
I 25 Twenty Mile Hill 207.2 May 26, 2022 10:34 am     None None 9 mph 21 mph SW 33.8°F 28% 68.0°F > 1/2 mi
I 25 Smokey Gap 228.58 May 26, 2022 10:34 am Dry 84.4°F None None 6 mph 12 mph W 39.2°F 35% 68.0°F > 1/2 mi
I 25 Tisdale 238.87 May 26, 2022 10:35 am Dry 80.8°F None None 2 mph 6 mph NE 42.8°F 41% 66.2°F > 1/2 mi
I 25 I-25 Divide 267.3 May 26, 2022 10:34 am N/A   None None 6 mph 9 mph N 39.2°F 35% 68.0°F > 1/2 mi
I 80 Evanston POE .06 May 26, 2022 10:34 am Dry 68.9°F None None 1 mph 6 mph W 32.0°F 26% 68.0°F > 1/2 mi
I 80 Evanston 4.2 May 26, 2022 10:34 am N/A   None None 4 mph 8 mph SE 32.0°F 24% 69.8°F > 1/2 mi
I 80 Bear River Drive 6.94 May 26, 2022 10:34 am Dry 70.7°F None None 2 mph 6 mph W 33.8°F 26% 69.8°F > 1/2 mi
I 80 Painter 10.16 May 26, 2022 10:34 am Dry 84.7°F None None 3 mph 6 mph W 30.2°F 23% 69.8°F > 1/2 mi
I 80 First Divide 13.86 May 26, 2022 10:34 am Dry 86.4°F None None 5 mph 10 mph SW 28.4°F 24% 66.2°F > 1/2 mi
I 80 US 189 Interchange 17.66 May 26, 2022 10:34 am Dry 87.1°F None None 8 mph 14 mph W 30.2°F 22% 68.0°F > 1/2 mi
I 80 Coal Road 20.95 May 26, 2022 10:34 am Dry 92.8°F None None 4 mph 11 mph SW 30.2°F 24% 68.0°F > 1/2 mi
I 80 Leroy 23.35 May 26, 2022 10:34 am Dry 91.0°F None None 7 mph 10 mph SW 30.2°F 22% 69.8°F > 1/2 mi
I 80 French 27.6 May 26, 2022 10:34 am Dry 85.3°F None None 5 mph 9 mph W 30.2°F 23% 68.0°F > 1/2 mi
I 80 Church Butte 52.65 May 26, 2022 10:34 am Dry 95.5°F None None 3 mph 7 mph W 28.4°F 22% 68.0°F > 1/2 mi
I 80 Peru Hill 82.31 May 26, 2022 10:34 am Dry 94.3°F None None 3 mph 5 mph W 26.6°F 21% 68.0°F > 1/2 mi
I 80 Green River Tunnel 90.5 May 26, 2022 10:34 am Dry 87.3°F None None 3 mph 5 mph NW 24.8°F 20% 68.0°F > 1/2 mi
I 80 Rock Springs West 97.9 May 26, 2022 10:34 am N/A   None None 10 mph 14 mph SW 24.8°F 19% 68.0°F > 1/2 mi
I 80 Baxter Road 111.5 May 26, 2022 10:34 am     None None 2 mph 12 mph W 24.8°F 18% 68.0°F > 1/2 mi
I 80 Mile Marker 124.5 124.5 May 26, 2022 10:34 am Dry 93.4°F None None 7 mph 14 mph SW 24.8°F 22% 64.4°F > 1/2 mi
I 80 Point of Rocks 129.8 May 26, 2022 10:34 am Dry 90.9°F None None 11 mph 15 mph W 26.6°F 23% 64.4°F > 1/2 mi
I 80 Black Butte 134.91 May 26, 2022 10:34 am Dry 72.7°F None None 12 mph 17 mph W 30.2°F 26% 66.2°F > 1/2 mi
I 80 Bitter Creek 141.83 May 26, 2022 10:34 am Dry 72.7°F None None 17 mph 25 mph W 26.6°F 23% 62.6°F > 1/2 mi
I 80 Tipton 156.72 May 26, 2022 10:34 am Dry 89.2°F None None 0 mph 0 mph W 24.8°F 21% 66.2°F > 1/2 mi
I 80 Continental Divide 184.3 May 26, 2022 10:34 am Dry 88.2°F None None 16 mph 24 mph W 24.8°F 22% 64.4°F > 1/2 mi
I 80 Sinclair 221.7 May 26, 2022 10:34 am Dry 80.1°F None None 14 mph 26 mph W 28.4°F 24% 66.2°F > 1/2 mi
I 80 Walcott Junction 234.66 May 26, 2022 10:34 am Dry 94.8°F None None 11 mph 16 mph SW 28.4°F 25% 64.4°F > 1/2 mi
I 80 Dana Ridge 244.8 May 26, 2022 10:34 am Dry 88.3°F None None 14 mph 21 mph SW 30.2°F 32% 60.8°F > 1/2 mi
I 80 Mile Marker 249.1 249.1 May 26, 2022 10:34 am N/A   None None 12 mph 18 mph SW 30.2°F 32% 60.8°F > 1/2 mi
I 80 Halleck Ridge 252.16 May 26, 2022 10:34 am Dry 91.4°F None None 17 mph 28 mph N 28.4°F 31% 59.0°F > 1/2 mi
I 80 Elk Mountain 256.17 May 26, 2022 10:34 am Trace Moisture 86.0°F None None 18 mph 27 mph S 26.6°F 26% 62.6°F > 1/2 mi
I 80 County Road 402 262 May 26, 2022 10:34 am Dry 92.8°F None None 12 mph 26 mph S 24.8°F 24% 62.6°F > 1/2 mi
I 80 Wagonhound 266.58 May 26, 2022 10:34 am Dry 85.1°F None None 16 mph 22 mph SW 26.6°F 26% 62.6°F > 1/2 mi
I 80 Foote Creek 269.5 May 26, 2022 10:34 am Dry 91.9°F None None 19 mph 22 mph S 24.8°F 27% 59.0°F > 1/2 mi
I 80 Arlington 271.8 May 26, 2022 10:34 am Dry 95.5°F None None 19 mph 24 mph W 24.8°F 25% 60.8°F > 1/2 mi
I 80 Arlington East 273.85 May 26, 2022 10:34 am Dry 91.0°F None None 15 mph 21 mph W 23.0°F 23% 60.8°F > 1/2 mi
I 80 Cooper Cove 279.36 May 26, 2022 10:34 am Dry 74.3°F None None 15 mph 23 mph SW 26.6°F 26% 60.8°F > 1/2 mi
I 80 Strouss Hill 283.75 May 26, 2022 10:34 am N/A   None None 14 mph 20 mph NE 23.0°F 23% 62.6°F > 1/2 mi
I 80 Quealy Dome 289.5 May 26, 2022 10:34 am N/A   None None 6 mph 11 mph W 26.6°F 19% 71.6°F > 1/2 mi
I 80 Herrick Lane 297.66 May 26, 2022 10:34 am Dry 87.3°F None None 5 mph 13 mph NW 30.2°F 29% 62.6°F > 1/2 mi
I 80 Summit East 325.8 May 26, 2022 10:34 am Dry 87.6°F None None 13 mph 19 mph SW 26.6°F 34% 55.4°F > 1/2 mi
I 80 Vedauwoo 329.4 May 26, 2022 10:34 am N/A   None None 14 mph 21 mph NW 26.6°F 30% 57.2°F > 1/2 mi
I 80 Lone Tree 333.32 May 26, 2022 10:34 am Dry 83.3°F None None 17 mph 22 mph W 26.6°F 28% 59.0°F > 1/2 mi
I 80 Buford East 336.1 May 26, 2022 10:34 am Dry 87.6°F None None 14 mph 22 mph SW 26.6°F 27% 60.8°F > 1/2 mi
I 80 Remount Road 340.5 May 26, 2022 10:34 am Dry 87.8°F None None 12 mph 17 mph W 28.4°F 27% 62.6°F > 1/2 mi
I 80 Otto 347.69 May 26, 2022 10:34 am Dry 89.4°F None None 0 mph 0 mph   26.6°F 23% 64.4°F > 1/2 mi
I 80 MP 353 353 May 26, 2022 10:34 am Dry 96.4°F None None 11 mph 21 mph W 26.6°F 20% 68.0°F > 1/2 mi
I 80 Cheyenne East 373 May 26, 2022 10:34 am Dry 83.5°F None None 8 mph 16 mph N 30.2°F 23% 69.8°F > 1/2 mi
I 90 Montana State Line .1 May 26, 2022 10:34 am Dry 101.8°F None None 6 mph 10 mph SE 42.8°F 44% 66.2°F > 1/2 mi
I 90 Pompey Creek 35.3 May 26, 2022 10:34 am Dry 90.9°F None None 4 mph 7 mph E 37.4°F 31% 68.0°F > 1/2 mi
I 90 Sheridan/Johnson County Line 41.33 May 26, 2022 10:34 am Dry 92.1°F None None 4 mph 9 mph NE 39.2°F 36% 68.0°F > 1/2 mi
I 90 Piney Creek Interchange 44.7 May 26, 2022 10:34 am Dry 88.5°F None None 9 mph 14 mph NW 37.4°F 37% 64.4°F > 1/2 mi
I 90 Kearny Divide 45.33 May 26, 2022 10:34 am Dry 86.2°F None None 9 mph 16 mph E 41.0°F 43% 64.4°F > 1/2 mi
I 90 Indian Creek Road 83.3 May 26, 2022 10:34 am Dry 96.8°F None None 11 mph 14 mph NE 37.4°F 40% 62.6°F > 1/2 mi
I 90 Dead Horse 91.5 May 26, 2022 10:34 am Dry 94.5°F None None 6 mph 7 mph N 33.8°F 30% 66.2°F > 1/2 mi
I 90 Mile Marker 108 108 May 26, 2022 10:34 am Dry 103.8°F None None 4 mph 7 mph NE 39.2°F 39% 64.4°F > 1/2 mi
I 90 Inyan Kara 170.5 May 26, 2022 10:34 am Dry 95.2°F None   4 mph 7 mph SW 41.0°F 34% 69.8°F  
I 90 Beulah 205.9 May 26, 2022 10:34 am Dry 78.1°F None None 4 mph 8 mph W 41.0°F 33% 71.6°F > 1/2 mi
US 14 Ucross 27.83 May 26, 2022 10:34 am Dry 91.9°F None None 6 mph 11 mph E 35.6°F 29% 69.8°F > 1/2 mi
US 14 Granite Pass 38.95 May 26, 2022 10:34 am N/A   None None 7 mph 9 mph NE 26.6°F 41% 48.2°F > 1/2 mi
US 16 Big Horn County Line 44.01 May 26, 2022 10:34 am Dry 80.2°F None None 9 mph 12 mph W 28.4°F 36% 55.4°F > 1/2 mi
US 191 Farson 40.45 May 26, 2022 10:34 am Dry 84.7°F None None 7 mph 11 mph SW 32.0°F 32% 62.6°F > 1/2 mi
US 191 Warren Bridge 119.9 May 26, 2022 10:34 am Dry 80.6°F None None 4 mph 11 mph S 26.6°F 28% 60.8°F > 1/2 mi
US 20 Natrona 30 May 26, 2022 10:34 am N/A   None None 20 mph 26 mph SW 32.0°F 24% 69.8°F > 1/2 mi
US 20 Hiland 57.4 May 26, 2022 10:34 am Dry 89.1°F None None 12 mph 19 mph W       > 1/2 mi
US 20 Van Tassell 57.85 May 26, 2022 10:34 am Dry 84.6°F None None 8 mph 14 mph SE 37.4°F 33% 66.2°F > 1/2 mi
US 26 Wind River Lake 26.05 May 26, 2022 10:34 am Ice Warning 30.0°F None None 9 mph 12 mph N 17.6°F 28% 50.0°F > 1/2 mi
US 287 Pumpkin Vine 420.4 May 26, 2022 10:34 am Dry 95.9°F None None 12 mph 27 mph N 26.6°F 29% 59.0°F > 1/2 mi
US 30 Sage Junction 34 May 26, 2022 10:34 am Dry 77.9°F None None 3 mph 6 mph NW 32.0°F 28% 66.2°F > 1/2 mi
US 30 Nugget Canyon 39.7 Sep 27, 2021 12:52 pm                      
US 85 Gun Barrel 46.8 May 26, 2022 10:34 am Dry 90.7°F None None 6 mph 12 mph NE 33.8°F 26% 69.8°F > 1/2 mi
US 85 Four Corners 247.2 May 26, 2022 10:34 am Dry 80.2°F None None 7 mph 11 mph W 37.4°F 44% 59.0°F > 1/2 mi
WY 120 Meeteetse 61.5 May 26, 2022 10:34 am Dry 90.9°F None   9 mph 12 mph N 10.4°F 9% 68.0°F > 1/2 mi
WY 210 Wildcat Trail 21.52 May 26, 2022 10:34 am Dry 93.7°F None None 15 mph 24 mph W 26.6°F 25% 62.6°F > 1/2 mi
WY 210 Hynds Lodge Road 24.55 May 26, 2022 10:34 am N/A   None None 7 mph 20 mph W 26.6°F 25% 62.6°F > 1/2 mi
WY 22 Teton Pass 11.2 May 26, 2022 10:34 am Dry 82.6°F None None 4 mph 7 mph E 30.2°F 43% 51.8°F > 1/2 mi
WY 220 Pathfinder Hill 80.1 May 26, 2022 10:34 am Dry 81.0°F None None 9 mph 16 mph S 33.8°F 32% 62.6°F > 1/2 mi
WY 230 Skyline 230 113.2 May 26, 2022 10:34 am Dry 99.1°F None None 7 mph 12 mph NW 26.6°F 29% 57.2°F > 1/2 mi
WY 258 Outer Drive 13.77 May 26, 2022 10:34 am Dry 96.8°F None None 14 mph 19 mph SW 33.8°F 25% 69.8°F > 1/2 mi
WY 28 New South Pass 41.4 May 26, 2022 10:34 am Dry 75.9°F None None 16 mph 23 mph W 28.4°F 33% 55.4°F > 1/2 mi
WY 28 Lower Red Canyon 59.71 May 26, 2022 10:34 am Dry 90.0°F None None 7 mph 14 mph NE 37.4°F 32% 66.2°F > 1/2 mi
WY 296 Chief Joseph 32.96 May 26, 2022 10:34 am Wet 86.7°F None None 17 mph 25 mph NW 19.4°F 25% 55.4°F > 1/2 mi
WY 372 Shute Creek 34 May 26, 2022 10:34 am N/A   None None 3 mph 7 mph SE 30.2°F 24% 68.0°F > 1/2 mi
WY 387 Pine Tree Junction 131.79 Mar 28, 2022 05:12 pm                      
WY 487 Shirley Rim 37 May 26, 2022 10:34 am Dry 90.1°F None None 1 mph 1 mph NE 32.0°F 33% 62.6°F > 1/2 mi
WY 59 Belle Fourche 87 May 26, 2022 10:34 am Dry 99.9°F None   2 mph 4 mph NW 37.4°F 32% 68.0°F  
WY 789 Beaver Rim 48.1 May 26, 2022 10:34 am     None None 13 mph 19 mph N 26.6°F 18% 71.6°F > 1/2 mi

Contact Us
Copyright 2021 Disclaimer Privacy Policy Media